sensor_id;sensor_type;location;lat;lon;timestamp;pressure;altitude;pressure_sealevel;temperature;humidity
80147;BME280;69472;55.812;37.638;2023-05-07T00:02:10;100482.06;;;3.03;64.29
80147;BME280;69472;55.812;37.638;2023-05-07T00:07:11;100477.97;;;3.10;64.66
80147;BME280;69472;55.812;37.638;2023-05-07T00:12:11;100478.66;;;3.01;64.92
80147;BME280;69472;55.812;37.638;2023-05-07T00:17:12;100481.91;;;2.94;65.54
80147;BME280;69472;55.812;37.638;2023-05-07T00:22:13;100487.03;;;2.99;65.09
80147;BME280;69472;55.812;37.638;2023-05-07T00:27:14;100485.94;;;2.85;65.82
80147;BME280;69472;55.812;37.638;2023-05-07T00:32:14;100486.16;;;2.97;65.39
80147;BME280;69472;55.812;37.638;2023-05-07T00:37:15;100494.56;;;2.96;65.27
80147;BME280;69472;55.812;37.638;2023-05-07T00:42:16;100494.31;;;2.82;65.60
80147;BME280;69472;55.812;37.638;2023-05-07T00:47:17;100490.84;;;2.79;66.03
80147;BME280;69472;55.812;37.638;2023-05-07T00:52:19;100498.16;;;2.63;66.72
80147;BME280;69472;55.812;37.638;2023-05-07T00:57:21;100497.41;;;2.69;66.40
80147;BME280;69472;55.812;37.638;2023-05-07T01:02:22;100489.81;;;2.69;65.79
80147;BME280;69472;55.812;37.638;2023-05-07T01:07:23;100492.25;;;2.64;66.49
80147;BME280;69472;55.812;37.638;2023-05-07T01:12:25;100494.63;;;2.57;66.53
80147;BME280;69472;55.812;37.638;2023-05-07T01:17:26;100492.31;;;2.67;66.16
80147;BME280;69472;55.812;37.638;2023-05-07T01:22:32;100482.41;;;2.35;66.70
80147;BME280;69472;55.812;37.638;2023-05-07T01:27:34;100501.28;;;2.52;66.87
80147;BME280;69472;55.812;37.638;2023-05-07T01:32:55;100509.69;;;2.51;66.81
80147;BME280;69472;55.812;37.638;2023-05-07T01:37:57;100487.50;;;2.38;66.70
80147;BME280;69472;55.812;37.638;2023-05-07T01:42:58;100513.16;;;2.56;66.79
80147;BME280;69472;55.812;37.638;2023-05-07T01:47:59;100520.81;;;2.59;66.99
80147;BME280;69472;55.812;37.638;2023-05-07T01:53:01;100522.38;;;2.96;66.87
80147;BME280;69472;55.812;37.638;2023-05-07T01:58:02;100507.81;;;3.29;65.81
80147;BME280;69472;55.812;37.638;2023-05-07T02:03:03;100527.19;;;3.78;64.67
80147;BME280;69472;55.812;37.638;2023-05-07T02:08:04;100533.03;;;4.28;63.47
80147;BME280;69472;55.812;37.638;2023-05-07T02:13:05;100533.56;;;4.67;63.05
80147;BME280;69472;55.812;37.638;2023-05-07T02:18:08;100541.53;;;4.97;61.80
80147;BME280;69472;55.812;37.638;2023-05-07T02:23:09;100536.03;;;5.36;60.33
80147;BME280;69472;55.812;37.638;2023-05-07T02:28:10;100548.88;;;5.53;59.89
80147;BME280;69472;55.812;37.638;2023-05-07T02:33:10;100541.16;;;6.50;57.74
80147;BME280;69472;55.812;37.638;2023-05-07T02:38:12;100556.63;;;6.91;56.56
80147;BME280;69472;55.812;37.638;2023-05-07T02:43:13;100559.22;;;7.00;56.11
80147;BME280;69472;55.812;37.638;2023-05-07T02:48:14;100539.84;;;7.46;54.97
80147;BME280;69472;55.812;37.638;2023-05-07T02:53:14;100567.84;;;7.54;53.50
80147;BME280;69472;55.812;37.638;2023-05-07T02:58:15;100561.09;;;7.93;52.10
80147;BME280;69472;55.812;37.638;2023-05-07T03:03:16;100571.25;;;8.63;50.55
80147;BME280;69472;55.812;37.638;2023-05-07T03:08:17;100571.16;;;8.84;50.13
80147;BME280;69472;55.812;37.638;2023-05-07T03:13:18;100570.81;;;9.54;49.00
80147;BME280;69472;55.812;37.638;2023-05-07T03:18:19;100574.75;;;9.98;48.11
80147;BME280;69472;55.812;37.638;2023-05-07T03:23:20;100584.03;;;10.13;47.58
80147;BME280;69472;55.812;37.638;2023-05-07T03:28:20;100597.16;;;10.69;46.57
80147;BME280;69472;55.812;37.638;2023-05-07T03:33:21;100593.41;;;10.98;45.40
80147;BME280;69472;55.812;37.638;2023-05-07T03:38:22;100595.06;;;11.02;44.75
80147;BME280;69472;55.812;37.638;2023-05-07T03:43:23;100592.28;;;11.20;43.84
80147;BME280;69472;55.812;37.638;2023-05-07T03:48:23;100586.47;;;11.71;42.71
80147;BME280;69472;55.812;37.638;2023-05-07T03:53:25;100589.50;;;11.35;43.84
80147;BME280;69472;55.812;37.638;2023-05-07T03:58:25;100582.63;;;12.48;41.77
80147;BME280;69472;55.812;37.638;2023-05-07T04:03:26;100603.16;;;12.50;41.35
80147;BME280;69472;55.812;37.638;2023-05-07T04:08:27;100602.66;;;11.11;41.95
80147;BME280;69472;55.812;37.638;2023-05-07T04:13:29;100608.13;;;9.83;43.92
80147;BME280;69472;55.812;37.638;2023-05-07T04:18:31;100606.19;;;12.71;41.33
80147;BME280;69472;55.812;37.638;2023-05-07T04:23:32;100614.44;;;13.30;39.33
80147;BME280;69472;55.812;37.638;2023-05-07T04:28:32;100619.44;;;12.95;38.91
80147;BME280;69472;55.812;37.638;2023-05-07T04:33:34;100616.16;;;13.31;38.96
80147;BME280;69472;55.812;37.638;2023-05-07T04:38:35;100612.50;;;13.79;37.27
80147;BME280;69472;55.812;37.638;2023-05-07T04:43:36;100627.69;;;12.64;37.48
80147;BME280;69472;55.812;37.638;2023-05-07T04:48:37;100626.81;;;15.54;36.46
80147;BME280;69472;55.812;37.638;2023-05-07T04:53:37;100616.72;;;16.01;35.26
80147;BME280;69472;55.812;37.638;2023-05-07T04:58:38;100613.44;;;15.39;33.41
80147;BME280;69472;55.812;37.638;2023-05-07T05:03:39;100632.50;;;12.34;37.76
80147;BME280;69472;55.812;37.638;2023-05-07T05:08:40;100628.34;;;12.28;38.09
80147;BME280;69472;55.812;37.638;2023-05-07T05:13:40;100628.28;;;16.16;34.27
80147;BME280;69472;55.812;37.638;2023-05-07T05:18:41;100615.41;;;16.67;31.58
80147;BME280;69472;55.812;37.638;2023-05-07T05:23:42;100619.28;;;17.71;31.47
80147;BME280;69472;55.812;37.638;2023-05-07T05:28:43;100630.25;;;16.85;32.47
80147;BME280;69472;55.812;37.638;2023-05-07T05:33:43;100635.84;;;15.68;32.87
80147;BME280;69472;55.812;37.638;2023-05-07T05:38:45;100638.56;;;14.38;33.99
80147;BME280;69472;55.812;37.638;2023-05-07T05:43:45;100655.06;;;12.15;36.95
80147;BME280;69472;55.812;37.638;2023-05-07T05:48:46;100647.47;;;13.50;35.71
80147;BME280;69472;55.812;37.638;2023-05-07T05:53:47;100645.31;;;11.15;36.79
80147;BME280;69472;55.812;37.638;2023-05-07T05:58:48;100652.16;;;11.81;35.61
80147;BME280;69472;55.812;37.638;2023-05-07T06:03:49;100666.09;;;13.19;34.16
80147;BME280;69472;55.812;37.638;2023-05-07T06:08:49;100662.38;;;13.32;33.21
80147;BME280;69472;55.812;37.638;2023-05-07T06:13:51;100672.50;;;13.81;33.73
80147;BME280;69472;55.812;37.638;2023-05-07T06:18:51;100666.88;;;12.75;35.09
80147;BME280;69472;55.812;37.638;2023-05-07T06:23:52;100654.19;;;14.32;31.15
80147;BME280;69472;55.812;37.638;2023-05-07T06:28:55;100654.91;;;14.37;30.75
80147;BME280;69472;55.812;37.638;2023-05-07T06:33:55;100656.63;;;14.01;29.73
80147;BME280;69472;55.812;37.638;2023-05-07T06:38:56;100660.44;;;17.09;29.47
80147;BME280;69472;55.812;37.638;2023-05-07T06:43:57;100660.00;;;17.21;28.83
80147;BME280;69472;55.812;37.638;2023-05-07T06:48:57;100670.25;;;16.75;29.32
80147;BME280;69472;55.812;37.638;2023-05-07T06:53:58;100640.06;;;24.04;21.91
80147;BME280;69472;55.812;37.638;2023-05-07T06:59:01;100633.19;;;20.06;23.49
80147;BME280;69472;55.812;37.638;2023-05-07T07:04:02;100652.91;;;31.15;16.53
80147;BME280;69472;55.812;37.638;2023-05-07T07:09:03;100659.78;;;18.99;24.13
80147;BME280;69472;55.812;37.638;2023-05-07T07:14:04;100661.88;;;16.16;26.11
80147;BME280;69472;55.812;37.638;2023-05-07T07:19:05;100652.78;;;14.54;27.64
80147;BME280;69472;55.812;37.638;2023-05-07T07:24:06;100639.25;;;25.80;20.55
80147;BME280;69472;55.812;37.638;2023-05-07T07:29:06;100657.31;;;15.96;26.25
80147;BME280;69472;55.812;37.638;2023-05-07T07:34:07;100651.75;;;33.88;15.99
80147;BME280;69472;55.812;37.638;2023-05-07T07:39:08;100634.97;;;41.76;12.71
80147;BME280;69472;55.812;37.638;2023-05-07T07:44:09;100635.28;;;43.51;12.21
80147;BME280;69472;55.812;37.638;2023-05-07T07:49:13;100631.91;;;20.15;21.82
80147;BME280;69472;55.812;37.638;2023-05-07T07:54:15;100650.75;;;16.66;24.81
80147;BME280;69472;55.812;37.638;2023-05-07T07:59:15;100656.91;;;13.06;27.75
80147;BME280;69472;55.812;37.638;2023-05-07T08:04:19;100641.44;;;19.97;20.83
80147;BME280;69472;55.812;37.638;2023-05-07T08:09:19;100639.06;;;23.52;18.80
80147;BME280;69472;55.812;37.638;2023-05-07T08:14:20;100638.56;;;31.90;16.02
80147;BME280;69472;55.812;37.638;2023-05-07T08:19:21;100637.09;;;26.67;15.83
80147;BME280;69472;55.812;37.638;2023-05-07T08:24:22;100636.59;;;23.08;18.09
80147;BME280;69472;55.812;37.638;2023-05-07T08:29:23;100636.28;;;16.86;22.50
80147;BME280;69472;55.812;37.638;2023-05-07T08:34:24;100638.31;;;16.25;23.83
80147;BME280;69472;55.812;37.638;2023-05-07T08:39:24;100643.84;;;15.28;25.20
80147;BME280;69472;55.812;37.638;2023-05-07T08:44:26;100653.63;;;11.30;30.04
80147;BME280;69472;55.812;37.638;2023-05-07T08:49:30;100647.31;;;13.57;26.67
80147;BME280;69472;55.812;37.638;2023-05-07T08:54:31;100650.91;;;13.06;27.29
80147;BME280;69472;55.812;37.638;2023-05-07T08:59:32;100643.34;;;11.97;28.39
80147;BME280;69472;55.812;37.638;2023-05-07T09:04:33;100646.69;;;11.40;28.90
80147;BME280;69472;55.812;37.638;2023-05-07T09:09:34;100634.63;;;11.48;28.80
80147;BME280;69472;55.812;37.638;2023-05-07T09:14:35;100661.16;;;9.42;31.84
80147;BME280;69472;55.812;37.638;2023-05-07T09:19:36;100631.63;;;10.32;30.36
80147;BME280;69472;55.812;37.638;2023-05-07T09:24:37;100643.81;;;11.66;29.06
80147;BME280;69472;55.812;37.638;2023-05-07T09:29:38;100656.88;;;9.45;31.03
80147;BME280;69472;55.812;37.638;2023-05-07T09:34:39;100635.06;;;10.30;30.45
80147;BME280;69472;55.812;37.638;2023-05-07T09:44:43;100605.41;;;10.04;30.73
80147;BME280;69472;55.812;37.638;2023-05-07T09:49:47;100625.09;;;10.91;30.11
80147;BME280;69472;55.812;37.638;2023-05-07T09:54:48;100615.50;;;11.06;30.13
80147;BME280;69472;55.812;37.638;2023-05-07T09:59:51;100628.13;;;11.87;29.49
80147;BME280;69472;55.812;37.638;2023-05-07T10:04:53;100628.00;;;11.30;29.74
80147;BME280;69472;55.812;37.638;2023-05-07T10:09:55;100628.75;;;9.52;30.83
80147;BME280;69472;55.812;37.638;2023-05-07T10:14:56;100627.06;;;10.67;29.73
80147;BME280;69472;55.812;37.638;2023-05-07T10:19:57;100626.94;;;9.70;30.73
80147;BME280;69472;55.812;37.638;2023-05-07T10:24:59;100620.69;;;10.17;29.56
80147;BME280;69472;55.812;37.638;2023-05-07T10:35:29;100609.53;;;10.27;29.51
80147;BME280;69472;55.812;37.638;2023-05-07T10:40:32;100614.53;;;11.16;29.20
80147;BME280;69472;55.812;37.638;2023-05-07T10:45:33;100619.50;;;11.30;28.82
80147;BME280;69472;55.812;37.638;2023-05-07T10:50:39;100638.91;;;9.64;31.61
80147;BME280;69472;55.812;37.638;2023-05-07T10:55:40;100638.41;;;10.35;30.76
80147;BME280;69472;55.812;37.638;2023-05-07T11:00:41;100639.03;;;10.61;30.50
80147;BME280;69472;55.812;37.638;2023-05-07T11:05:43;100628.38;;;11.00;30.41
80147;BME280;69472;55.812;37.638;2023-05-07T11:10:56;100637.38;;;11.34;30.08
80147;BME280;69472;55.812;37.638;2023-05-07T11:15:57;100632.31;;;9.17;32.78
80147;BME280;69472;55.812;37.638;2023-05-07T11:20:59;100634.78;;;9.31;33.03
80147;BME280;69472;55.812;37.638;2023-05-07T11:26:04;100638.97;;;9.49;32.69
80147;BME280;69472;55.812;37.638;2023-05-07T11:31:06;100647.34;;;9.81;32.14
80147;BME280;69472;55.812;37.638;2023-05-07T11:36:08;100640.88;;;9.01;33.94
80147;BME280;69472;55.812;37.638;2023-05-07T11:41:09;100622.75;;;9.62;32.83
80147;BME280;69472;55.812;37.638;2023-05-07T11:46:11;100636.72;;;10.35;30.71
80147;BME280;69472;55.812;37.638;2023-05-07T11:51:12;100639.19;;;10.46;30.52
80147;BME280;69472;55.812;37.638;2023-05-07T11:56:15;100634.78;;;9.40;31.93
80147;BME280;69472;55.812;37.638;2023-05-07T12:01:16;100609.69;;;9.99;31.29
80147;BME280;69472;55.812;37.638;2023-05-07T12:06:18;100627.41;;;10.28;31.48
80147;BME280;69472;55.812;37.638;2023-05-07T12:11:23;100610.28;;;10.35;31.64
80147;BME280;69472;55.812;37.638;2023-05-07T12:16:26;100643.19;;;9.56;31.65
80147;BME280;69472;55.812;37.638;2023-05-07T12:21:27;100636.38;;;9.59;31.79
80147;BME280;69472;55.812;37.638;2023-05-07T12:26:27;100615.91;;;9.67;31.83
80147;BME280;69472;55.812;37.638;2023-05-07T12:31:28;100636.03;;;10.14;31.67
80147;BME280;69472;55.812;37.638;2023-05-07T12:36:39;100618.78;;;10.41;31.49
80147;BME280;69472;55.812;37.638;2023-05-07T12:41:58;100633.69;;;9.80;32.69
80147;BME280;69472;55.812;37.638;2023-05-07T12:47:02;100616.22;;;10.37;32.39
80147;BME280;69472;55.812;37.638;2023-05-07T12:52:03;100600.56;;;9.67;32.62
80147;BME280;69472;55.812;37.638;2023-05-07T12:57:08;100621.22;;;9.20;33.62
80147;BME280;69472;55.812;37.638;2023-05-07T13:02:09;100628.94;;;9.14;33.17
80147;BME280;69472;55.812;37.638;2023-05-07T13:07:10;100626.97;;;9.66;32.49
80147;BME280;69472;55.812;37.638;2023-05-07T13:12:10;100622.81;;;9.43;32.73
80147;BME280;69472;55.812;37.638;2023-05-07T13:17:11;100618.41;;;9.70;32.79
80147;BME280;69472;55.812;37.638;2023-05-07T13:22:13;100623.91;;;10.37;31.59
80147;BME280;69472;55.812;37.638;2023-05-07T13:27:13;100620.44;;;10.44;30.90
80147;BME280;69472;55.812;37.638;2023-05-07T13:32:14;100615.56;;;11.03;30.99
80147;BME280;69472;55.812;37.638;2023-05-07T13:37:15;100609.69;;;10.92;30.81
80147;BME280;69472;55.812;37.638;2023-05-07T13:42:16;100612.19;;;10.98;30.51
80147;BME280;69472;55.812;37.638;2023-05-07T13:47:16;100609.63;;;11.01;30.34
80147;BME280;69472;55.812;37.638;2023-05-07T13:52:17;100603.91;;;10.76;30.35
80147;BME280;69472;55.812;37.638;2023-05-07T13:57:18;100611.88;;;11.24;30.75
80147;BME280;69472;55.812;37.638;2023-05-07T14:02:19;100608.41;;;11.29;30.65
80147;BME280;69472;55.812;37.638;2023-05-07T14:07:20;100621.94;;;11.39;30.48
80147;BME280;69472;55.812;37.638;2023-05-07T14:12:21;100604.84;;;11.38;30.59
80147;BME280;69472;55.812;37.638;2023-05-07T14:17:21;100619.66;;;11.16;30.35
80147;BME280;69472;55.812;37.638;2023-05-07T14:22:25;100621.06;;;10.70;31.12
80147;BME280;69472;55.812;37.638;2023-05-07T14:27:26;100614.13;;;10.80;30.87
80147;BME280;69472;55.812;37.638;2023-05-07T14:32:26;100619.56;;;10.46;31.09
80147;BME280;69472;55.812;37.638;2023-05-07T14:37:27;100622.97;;;10.47;31.06
80147;BME280;69472;55.812;37.638;2023-05-07T14:42:28;100616.44;;;10.08;31.53
80147;BME280;69472;55.812;37.638;2023-05-07T14:47:29;100608.53;;;10.41;31.22
80147;BME280;69472;55.812;37.638;2023-05-07T14:52:30;100585.50;;;10.41;31.69
80147;BME280;69472;55.812;37.638;2023-05-07T14:57:30;100607.38;;;10.71;31.20
80147;BME280;69472;55.812;37.638;2023-05-07T15:02:35;100618.00;;;10.30;31.82
80147;BME280;69472;55.812;37.638;2023-05-07T15:07:36;100618.72;;;10.46;31.39
80147;BME280;69472;55.812;37.638;2023-05-07T15:12:36;100615.41;;;10.36;31.24
80147;BME280;69472;55.812;37.638;2023-05-07T15:17:37;100622.50;;;9.96;31.82
80147;BME280;69472;55.812;37.638;2023-05-07T15:22:38;100595.25;;;9.95;31.80
80147;BME280;69472;55.812;37.638;2023-05-07T15:27:39;100623.22;;;10.15;31.80
80147;BME280;69472;55.812;37.638;2023-05-07T15:32:40;100602.78;;;10.15;32.23
80147;BME280;69472;55.812;37.638;2023-05-07T15:37:41;100629.28;;;10.05;32.10
80147;BME280;69472;55.812;37.638;2023-05-07T15:42:46;100602.25;;;9.65;32.18
80147;BME280;69472;55.812;37.638;2023-05-07T15:47:46;100628.72;;;9.53;32.75
80147;BME280;69472;55.812;37.638;2023-05-07T15:52:47;100627.59;;;9.96;32.25
80147;BME280;69472;55.812;37.638;2023-05-07T15:57:48;100630.19;;;9.95;32.63
80147;BME280;69472;55.812;37.638;2023-05-07T16:02:49;100625.28;;;9.66;32.46
80147;BME280;69472;55.812;37.638;2023-05-07T16:07:49;100644.19;;;9.29;34.00
80147;BME280;69472;55.812;37.638;2023-05-07T16:12:51;100644.06;;;9.55;32.94
80147;BME280;69472;55.812;37.638;2023-05-07T16:17:51;100645.84;;;9.37;34.37
80147;BME280;69472;55.812;37.638;2023-05-07T16:22:57;100639.09;;;9.21;33.43
80147;BME280;69472;55.812;37.638;2023-05-07T16:27:58;100654.44;;;9.26;33.97
80147;BME280;69472;55.812;37.638;2023-05-07T16:32:59;100648.50;;;9.15;33.85
80147;BME280;69472;55.812;37.638;2023-05-07T16:38:00;100657.91;;;9.04;34.28
80147;BME280;69472;55.812;37.638;2023-05-07T16:43:00;100657.97;;;8.70;34.85
80147;BME280;69472;55.812;37.638;2023-05-07T16:48:03;100661.31;;;8.94;34.63
80147;BME280;69472;55.812;37.638;2023-05-07T16:53:05;100665.59;;;8.95;34.73
80147;BME280;69472;55.812;37.638;2023-05-07T16:58:08;100666.47;;;8.74;35.19
80147;BME280;69472;55.812;37.638;2023-05-07T17:03:09;100667.34;;;8.58;35.16
80147;BME280;69472;55.812;37.638;2023-05-07T17:08:10;100669.91;;;8.68;35.29
80147;BME280;69472;55.812;37.638;2023-05-07T17:13:11;100678.41;;;8.63;35.63
80147;BME280;69472;55.812;37.638;2023-05-07T17:18:13;100680.09;;;8.55;36.15
80147;BME280;69472;55.812;37.638;2023-05-07T17:23:14;100683.50;;;8.37;36.53
80147;BME280;69472;55.812;37.638;2023-05-07T17:28:15;100692.00;;;8.38;36.71
80147;BME280;69472;55.812;37.638;2023-05-07T17:33:15;100692.84;;;8.34;36.87
80147;BME280;69472;55.812;37.638;2023-05-07T17:38:16;100691.16;;;8.39;37.45
80147;BME280;69472;55.812;37.638;2023-05-07T17:43:17;100692.84;;;8.34;37.99
80147;BME280;69472;55.812;37.638;2023-05-07T17:48:18;100698.75;;;8.19;38.40
80147;BME280;69472;55.812;37.638;2023-05-07T17:53:19;100692.78;;;8.19;38.00
80147;BME280;69472;55.812;37.638;2023-05-07T17:58:23;100700.41;;;7.94;39.13
80147;BME280;69472;55.812;37.638;2023-05-07T18:03:26;100701.22;;;7.87;39.48
80147;BME280;69472;55.812;37.638;2023-05-07T18:08:27;100702.97;;;7.93;39.22
80147;BME280;69472;55.812;37.638;2023-05-07T18:13:28;100700.38;;;7.82;40.27
80147;BME280;69472;55.812;37.638;2023-05-07T18:18:29;100703.72;;;7.66;40.86
80147;BME280;69472;55.812;37.638;2023-05-07T18:23:31;100709.66;;;7.68;40.79
80147;BME280;69472;55.812;37.638;2023-05-07T18:28:34;100724.13;;;7.68;41.00
80147;BME280;69472;55.812;37.638;2023-05-07T18:33:35;100735.91;;;7.43;41.60
80147;BME280;69472;55.812;37.638;2023-05-07T18:38:36;100718.09;;;7.54;41.32
80147;BME280;69472;55.812;37.638;2023-05-07T18:43:38;100728.16;;;7.22;43.90
80147;BME280;69472;55.812;37.638;2023-05-07T18:48:38;100731.56;;;7.28;44.36
80147;BME280;69472;55.812;37.638;2023-05-07T18:53:39;100736.66;;;7.28;44.11
80147;BME280;69472;55.812;37.638;2023-05-07T18:58:40;100740.97;;;7.41;43.08
80147;BME280;69472;55.812;37.638;2023-05-07T19:03:41;100739.25;;;7.36;44.12
80147;BME280;69472;55.812;37.638;2023-05-07T19:08:41;100728.91;;;7.10;46.00
80147;BME280;69472;55.812;37.638;2023-05-07T19:13:42;100746.72;;;7.07;45.97
80147;BME280;69472;55.812;37.638;2023-05-07T19:18:44;100741.56;;;6.97;47.29
80147;BME280;69472;55.812;37.638;2023-05-07T19:23:44;100734.00;;;7.09;45.84
80147;BME280;69472;55.812;37.638;2023-05-07T19:28:46;100749.31;;;7.12;47.17
80147;BME280;69472;55.812;37.638;2023-05-07T19:33:47;100747.53;;;7.00;47.30
80147;BME280;69472;55.812;37.638;2023-05-07T19:38:48;100748.38;;;7.04;46.49
80147;BME280;69472;55.812;37.638;2023-05-07T19:43:52;100758.38;;;6.78;48.22
80147;BME280;69472;55.812;37.638;2023-05-07T19:48:53;100751.78;;;7.03;47.45
80147;BME280;69472;55.812;37.638;2023-05-07T19:53:54;100758.47;;;6.92;47.85
80147;BME280;69472;55.812;37.638;2023-05-07T19:58:54;100771.19;;;6.92;47.25
80147;BME280;69472;55.812;37.638;2023-05-07T20:03:55;100771.97;;;6.79;47.51
80147;BME280;69472;55.812;37.638;2023-05-07T20:08:56;100772.81;;;6.81;47.93
80147;BME280;69472;55.812;37.638;2023-05-07T20:13:57;100782.19;;;6.85;48.21
80147;BME280;69472;55.812;37.638;2023-05-07T20:18:57;100781.34;;;6.86;47.90
80147;BME280;69472;55.812;37.638;2023-05-07T20:23:58;100785.63;;;6.88;48.17
80147;BME280;69472;55.812;37.638;2023-05-07T20:28:59;100787.22;;;6.80;48.80
80147;BME280;69472;55.812;37.638;2023-05-07T20:34:00;100783.78;;;6.73;48.53
80147;BME280;69472;55.812;37.638;2023-05-07T20:39:01;100798.22;;;6.78;48.53
80147;BME280;69472;55.812;37.638;2023-05-07T20:44:02;100810.13;;;6.79;48.70
80147;BME280;69472;55.812;37.638;2023-05-07T20:49:03;100802.34;;;6.62;49.29
80147;BME280;69472;55.812;37.638;2023-05-07T20:54:03;100809.97;;;6.63;49.35
80147;BME280;69472;55.812;37.638;2023-05-07T20:59:04;100815.06;;;6.62;49.98
80147;BME280;69472;55.812;37.638;2023-05-07T21:04:05;100820.16;;;6.65;49.78
80147;BME280;69472;55.812;37.638;2023-05-07T21:09:06;100822.72;;;6.68;49.11
80147;BME280;69472;55.812;37.638;2023-05-07T21:14:07;100831.16;;;6.61;50.01
80147;BME280;69472;55.812;37.638;2023-05-07T21:19:08;100827.75;;;6.59;49.70
80147;BME280;69472;55.812;37.638;2023-05-07T21:24:09;100813.22;;;6.50;49.24
80147;BME280;69472;55.812;37.638;2023-05-07T21:29:10;100841.31;;;6.59;48.96
80147;BME280;69472;55.812;37.638;2023-05-07T21:34:11;100844.69;;;6.57;49.42
80147;BME280;69472;55.812;37.638;2023-05-07T21:39:12;100845.50;;;6.54;49.19
80147;BME280;69472;55.812;37.638;2023-05-07T21:44:12;100822.44;;;6.38;49.76
80147;BME280;69472;55.812;37.638;2023-05-07T21:49:13;100846.28;;;6.47;50.06
80147;BME280;69472;55.812;37.638;2023-05-07T21:54:14;100826.53;;;6.27;50.47
80147;BME280;69472;55.812;37.638;2023-05-07T21:59:15;100847.75;;;6.29;50.06
80147;BME280;69472;55.812;37.638;2023-05-07T22:04:16;100849.50;;;6.34;50.15
80147;BME280;69472;55.812;37.638;2023-05-07T22:09:16;100855.41;;;6.32;50.23
80147;BME280;69472;55.812;37.638;2023-05-07T22:14:17;100827.16;;;6.06;51.28
80147;BME280;69472;55.812;37.638;2023-05-07T22:19:18;100865.47;;;6.24;50.96
80147;BME280;69472;55.812;37.638;2023-05-07T22:24:19;100867.22;;;6.27;50.87
80147;BME280;69472;55.812;37.638;2023-05-07T22:29:19;100867.22;;;6.27;51.36
80147;BME280;69472;55.812;37.638;2023-05-07T22:34:22;100877.16;;;6.08;51.78
80147;BME280;69472;55.812;37.638;2023-05-07T22:39:23;100866.19;;;6.11;51.99
80147;BME280;69472;55.812;37.638;2023-05-07T22:44:24;100866.09;;;6.05;51.46
80147;BME280;69472;55.812;37.638;2023-05-07T22:49:24;100857.66;;;6.07;51.65
80147;BME280;69472;55.812;37.638;2023-05-07T22:54:25;100863.44;;;5.96;51.82
80147;BME280;69472;55.812;37.638;2023-05-07T22:59:26;100835.47;;;5.93;50.75
80147;BME280;69472;55.812;37.638;2023-05-07T23:04:27;100861.72;;;5.92;51.73
80147;BME280;69472;55.812;37.638;2023-05-07T23:09:28;100859.06;;;5.84;51.67
80147;BME280;69472;55.812;37.638;2023-05-07T23:14:29;100854.97;;;5.94;51.40
80147;BME280;69472;55.812;37.638;2023-05-07T23:19:29;100865.03;;;5.88;52.22
80147;BME280;69472;55.812;37.638;2023-05-07T23:24:30;100865.94;;;5.93;51.82
80147;BME280;69472;55.812;37.638;2023-05-07T23:29:31;100860.59;;;5.75;52.81
80147;BME280;69472;55.812;37.638;2023-05-07T23:34:32;100871.63;;;5.75;52.96
80147;BME280;69472;55.812;37.638;2023-05-07T23:39:32;100869.91;;;5.73;53.38
80147;BME280;69472;55.812;37.638;2023-05-07T23:44:33;100871.50;;;5.66;53.28
80147;BME280;69472;55.812;37.638;2023-05-07T23:49:34;100865.56;;;5.66;53.65
80147;BME280;69472;55.812;37.638;2023-05-07T23:54:35;100868.91;;;5.63;53.50
80147;BME280;69472;55.812;37.638;2023-05-07T23:59:35;100879.03;;;5.62;53.57
